Time;durP1;ratioP1;P1;durP2;ratioP2;P2;SDS_P1;SDS_P2;PMS_P1;PMS_P2;Temp;Humidity;BMP_temperature;BMP_pressure;BME280_temperature;BME280_humidity;BME280_pressure;Samples;Min_cycle;Max_cycle;Signal;HPM_P1;HPM_P2
2022/04/01 00:00:10;;;;;;;9.37;4.47;;;1.10;1.00;;;;;;5074407;28;20652;-84
2022/04/01 00:02:37;;;;;;;7.93;4.80;;;1.10;1.00;;;;;;5074354;28;20245;-86
2022/04/01 00:05:05;;;;;;;8.60;5.10;;;1.10;1.00;;;;;;5075113;28;20203;-87
2022/04/01 00:07:33;;;;;;;9.60;5.03;;;1.10;1.00;;;;;;5074626;28;20200;-84
2022/04/01 00:10:00;;;;;;;9.33;4.33;;;1.10;1.00;;;;;;5074339;28;20289;-86
2022/04/01 00:12:32;;;;;;;7.80;4.97;;;1.10;1.00;;;;;;5082987;28;20210;-87
2022/04/01 00:14:59;;;;;;;11.13;5.17;;;1.10;1.00;;;;;;5082979;28;20264;-87
2022/04/01 00:17:27;;;;;;;8.10;4.70;;;1.10;1.00;;;;;;5073000;28;20199;-85
2022/04/01 00:19:54;;;;;;;10.93;6.63;;;1.10;1.00;;;;;;5074485;28;20199;-87
2022/04/01 00:22:21;;;;;;;8.83;5.40;;;1.10;1.00;;;;;;5073979;28;20249;-84
2022/04/01 00:24:48;;;;;;;6.93;5.07;;;1.10;1.00;;;;;;5073707;28;20219;-87
2022/04/01 00:27:15;;;;;;;8.13;5.37;;;1.10;1.00;;;;;;5074351;28;20195;-84
2022/04/01 00:29:42;;;;;;;8.90;4.87;;;1.10;1.00;;;;;;5074004;28;20261;-89
2022/04/01 00:32:09;;;;;;;7.23;5.20;;;1.10;1.00;;;;;;5074459;28;20196;-84
2022/04/01 00:34:37;;;;;;;10.43;5.53;;;1.10;1.00;;;;;;5073636;28;20200;-83
2022/04/01 00:37:05;;;;;;;13.07;5.93;;;1.10;1.00;;;;;;5074193;28;20270;-85
2022/04/01 00:39:33;;;;;;;7.67;5.40;;;1.10;1.00;;;;;;5073933;28;20610;-85
2022/04/01 00:42:02;;;;;;;7.47;4.93;;;1.10;1.00;;;;;;5073783;28;20200;-86
2022/04/01 00:44:31;;;;;;;7.90;5.20;;;1.00;1.00;;;;;;5073243;28;20204;-86
2022/04/01 00:47:01;;;;;;;9.00;5.53;;;1.10;1.00;;;;;;5073358;28;20200;-85
2022/04/01 00:49:29;;;;;;;8.93;5.67;;;1.00;1.00;;;;;;5072346;28;20196;-84
2022/04/01 00:52:00;;;;;;;7.90;5.30;;;1.00;1.00;;;;;;5073613;28;20195;-86
2022/04/01 00:54:27;;;;;;;7.20;5.20;;;0.90;1.00;;;;;;5073596;28;20673;-84
2022/04/01 00:56:55;;;;;;;12.90;5.43;;;0.90;1.00;;;;;;5073267;28;20706;-84
2022/04/01 00:59:24;;;;;;;8.90;5.30;;;0.90;1.00;;;;;;5073478;28;20195;-84
2022/04/01 01:01:51;;;;;;;11.33;5.40;;;0.80;1.00;;;;;;5073466;28;20220;-85
2022/04/01 01:04:20;;;;;;;8.57;5.23;;;0.90;1.00;;;;;;5073316;28;20223;-84
2022/04/01 01:06:49;;;;;;;7.53;5.20;;;0.80;1.00;;;;;;5072989;28;20589;-86
2022/04/01 01:09:18;;;;;;;8.93;5.07;;;0.80;1.00;;;;;;5073232;28;20271;-86
2022/04/01 01:11:46;;;;;;;11.80;5.63;;;0.80;1.00;;;;;;5073454;28;20179;-84
2022/04/01 01:14:15;;;;;;;9.73;5.80;;;0.70;1.00;;;;;;5072829;28;20200;-86
2022/04/01 01:16:44;;;;;;;7.30;4.90;;;0.70;1.00;;;;;;5073608;28;20196;-85
2022/04/01 01:19:13;;;;;;;8.23;4.73;;;0.70;1.00;;;;;;5073654;28;20227;-84
2022/04/01 01:21:41;;;;;;;8.37;5.10;;;0.70;1.00;;;;;;5073448;28;20191;-84
2022/04/01 01:24:13;;;;;;;11.17;5.43;;;0.60;1.00;;;;;;5072759;28;20451;-84
2022/04/01 01:26:44;;;;;;;11.47;4.93;;;0.70;1.00;;;;;;5072980;28;20180;-85
2022/04/01 01:29:12;;;;;;;8.97;5.17;;;0.60;1.00;;;;;;5072547;28;20282;-84
2022/04/01 01:31:39;;;;;;;8.63;5.17;;;0.60;1.00;;;;;;5073214;28;20192;-84
2022/04/01 01:34:06;;;;;;;10.43;4.80;;;0.60;1.00;;;;;;5072881;28;20202;-84
2022/04/01 01:36:33;;;;;;;7.83;5.33;;;0.60;1.00;;;;;;5072859;28;20450;-84
2022/04/01 01:39:00;;;;;;;8.90;5.40;;;0.60;1.00;;;;;;5072473;28;20192;-85
2022/04/01 01:41:27;;;;;;;7.03;4.80;;;0.60;1.00;;;;;;5072504;28;20714;-84
2022/04/01 01:43:56;;;;;;;10.03;5.20;;;0.60;1.00;;;;;;5072003;28;20306;-85
2022/04/01 01:46:23;;;;;;;8.27;4.33;;;0.60;1.00;;;;;;5072314;28;20556;-83
2022/04/01 01:48:50;;;;;;;12.37;5.07;;;0.60;1.00;;;;;;5072428;28;20254;-84
2022/04/01 01:56:46;;;;;;;6.60;4.17;;;0.50;1.00;;;;;;5072546;28;20179;-86
2022/04/01 01:59:15;;;;;;;9.73;5.13;;;0.50;1.00;;;;;;5072282;28;20649;-85
2022/04/01 02:01:45;;;;;;;8.77;4.50;;;0.50;1.00;;;;;;5072717;28;20226;-85
2022/04/01 02:04:12;;;;;;;10.17;5.00;;;0.50;1.00;;;;;;5072283;28;20211;-85
2022/04/01 02:06:40;;;;;;;9.20;4.10;;;0.50;1.00;;;;;;5072871;28;20279;-83
2022/04/01 02:09:07;;;;;;;7.43;4.27;;;0.40;1.00;;;;;;5071978;28;20188;-84
2022/04/01 02:11:37;;;;;;;7.20;4.57;;;0.40;1.00;;;;;;5072553;28;20254;-84
2022/04/01 02:14:04;;;;;;;9.70;4.60;;;0.40;1.00;;;;;;5071963;28;20690;-84
2022/04/01 02:16:33;;;;;;;9.23;4.77;;;0.40;1.00;;;;;;5072047;28;20237;-84
2022/04/01 02:19:00;;;;;;;6.93;4.30;;;0.40;1.00;;;;;;5071944;28;20644;-85
2022/04/01 02:21:29;;;;;;;7.93;4.60;;;0.30;1.00;;;;;;5072253;28;20206;-85
2022/04/01 02:23:56;;;;;;;6.27;4.17;;;0.30;1.00;;;;;;5071994;28;20245;-85
2022/04/01 02:26:23;;;;;;;6.07;3.70;;;0.30;1.00;;;;;;5072073;28;20257;-85
2022/04/01 02:28:50;;;;;;;7.33;4.60;;;0.30;1.00;;;;;;5072185;28;20199;-84
2022/04/01 02:31:17;;;;;;;5.50;4.03;;;0.30;1.00;;;;;;5072128;28;20250;-83
2022/04/01 02:33:46;;;;;;;6.77;4.47;;;0.30;1.00;;;;;;5071918;28;20195;-85
2022/04/01 02:36:13;;;;;;;6.90;4.10;;;0.20;1.00;;;;;;5072593;28;20222;-84
2022/04/01 02:38:42;;;;;;;6.27;4.27;;;0.20;1.00;;;;;;5072344;28;20249;-84
2022/04/01 02:41:12;;;;;;;6.73;4.13;;;0.20;1.00;;;;;;5073945;28;20195;-84
2022/04/01 02:43:40;;;;;;;7.43;4.20;;;0.20;1.00;;;;;;5076094;28;20668;-83
2022/04/01 02:46:10;;;;;;;6.90;3.97;;;0.20;1.00;;;;;;5076208;28;20279;-84
2022/04/01 02:48:37;;;;;;;7.27;3.67;;;0.10;1.00;;;;;;5076014;28;20211;-84
2022/04/01 02:51:06;;;;;;;9.90;4.10;;;0.00;1.00;;;;;;5075772;28;20660;-86
2022/04/01 02:53:33;;;;;;;7.93;4.33;;;-0.10;1.00;;;;;;5076043;28;20733;-86
2022/04/01 02:56:00;;;;;;;7.37;4.03;;;-0.10;1.00;;;;;;5075542;28;20555;-84
2022/04/01 02:58:27;;;;;;;6.07;4.00;;;-0.30;1.00;;;;;;5075705;28;20192;-84
2022/04/01 03:00:54;;;;;;;6.90;4.17;;;-0.30;1.00;;;;;;5074986;28;20649;-84
2022/04/01 03:03:21;;;;;;;9.10;4.00;;;-0.40;1.00;;;;;;5075811;28;20198;-85
2022/04/01 03:05:48;;;;;;;7.40;4.40;;;-0.40;1.00;;;;;;5075777;28;20220;-85
2022/04/01 03:08:17;;;;;;;6.93;4.17;;;-0.50;1.00;;;;;;5075322;28;20192;-83
2022/04/01 03:10:44;;;;;;;8.60;4.60;;;-0.50;1.00;;;;;;5075856;28;20285;-84
2022/04/01 03:13:11;;;;;;;6.87;3.83;;;-0.50;1.00;;;;;;5075991;28;20192;-86
2022/04/01 03:15:38;;;;;;;7.07;4.10;;;-0.60;1.00;;;;;;5075683;28;20204;-84
2022/04/01 03:18:06;;;;;;;7.27;4.50;;;-0.60;1.00;;;;;;5075341;28;20532;-84
2022/04/01 03:20:35;;;;;;;5.93;3.97;;;-0.70;1.00;;;;;;5075292;28;20222;-84
2022/04/01 03:23:03;;;;;;;8.57;4.17;;;-0.70;1.00;;;;;;5075028;28;20270;-87
2022/04/01 03:25:32;;;;;;;5.90;3.80;;;-0.70;1.00;;;;;;5074994;28;20223;-84
2022/04/01 03:28:01;;;;;;;6.77;4.33;;;-0.80;1.00;;;;;;5075160;28;20711;-84
2022/04/01 03:30:29;;;;;;;7.90;4.10;;;-0.80;1.00;;;;;;5074971;28;20234;-84
2022/04/01 03:32:56;;;;;;;8.27;4.57;;;-0.80;1.00;;;;;;5075555;28;20195;-83
2022/04/01 03:35:26;;;;;;;7.40;4.47;;;-0.90;1.00;;;;;;5075230;28;20223;-84
2022/04/01 03:37:53;;;;;;;6.17;4.13;;;-0.80;1.00;;;;;;5075314;28;20196;-84
2022/04/01 03:40:21;;;;;;;6.63;4.07;;;-0.90;1.00;;;;;;5074812;28;20195;-83
2022/04/01 03:42:52;;;;;;;6.53;3.97;;;-0.90;1.00;;;;;;5075212;28;20219;-84
2022/04/01 03:45:20;;;;;;;9.70;4.03;;;-0.90;1.00;;;;;;5075087;28;20300;-85
2022/04/01 03:47:53;;;;;;;12.13;8.27;;;-1.00;1.00;;;;;;5074798;28;20192;-84
2022/04/01 03:50:34;;;;;;;8.73;4.20;;;-1.00;1.00;;;;;;5075077;28;20184;-84
2022/04/01 03:53:05;;;;;;;6.30;3.93;;;-1.00;1.00;;;;;;5074816;28;20212;-83
2022/04/01 03:55:33;;;;;;;5.87;3.60;;;-0.90;1.00;;;;;;5074924;28;20199;-85
2022/04/01 03:58:08;;;;;;;5.83;3.60;;;-1.00;1.00;;;;;;5074818;28;20192;-84
2022/04/01 04:00:36;;;;;;;7.00;4.30;;;-1.00;1.00;;;;;;5074205;28;20215;-85
2022/04/01 04:03:08;;;;;;;6.03;3.53;;;-1.00;1.00;;;;;;5074722;28;20188;-84
2022/04/01 04:05:37;;;;;;;7.77;3.67;;;-1.00;1.00;;;;;;5074742;28;20609;-84
2022/04/01 04:08:06;;;;;;;5.97;3.87;;;-1.00;1.00;;;;;;5074335;28;20566;-86
2022/04/01 04:10:34;;;;;;;9.13;4.00;;;-1.00;1.00;;;;;;5074419;28;20219;-84
2022/04/01 04:13:02;;;;;;;5.97;3.43;;;-1.00;1.00;;;;;;5074388;28;20595;-84
2022/04/01 04:15:39;;;;;;;8.83;4.00;;;-1.00;1.00;;;;;;5074291;28;20560;-84
2022/04/01 04:18:15;;;;;;;7.80;3.83;;;-1.00;1.00;;;;;;5091619;28;20180;-86
2022/04/01 04:20:54;;;;;;;6.50;3.80;;;-1.00;1.00;;;;;;5074786;28;20241;-83
2022/04/01 04:23:24;;;;;;;5.20;3.47;;;-1.00;1.00;;;;;;5074177;28;20575;-83
2022/04/01 04:26:00;;;;;;;6.00;3.43;;;-1.00;1.00;;;;;;5074314;28;20309;-84
2022/04/01 04:28:33;;;;;;;5.63;3.60;;;-1.00;1.00;;;;;;5074291;28;20262;-82
2022/04/01 04:31:05;;;;;;;5.20;3.70;;;-0.90;1.00;;;;;;5066954;28;20188;-83
2022/04/01 04:33:34;;;;;;;6.87;3.27;;;-0.90;1.00;;;;;;5072224;28;20188;-82
2022/04/01 04:36:04;;;;;;;4.93;3.37;;;-0.90;1.00;;;;;;5092541;28;20224;-83
2022/04/01 04:38:38;;;;;;;5.33;3.47;;;-0.80;1.00;;;;;;5073904;28;20191;-83
2022/04/01 04:41:08;;;;;;;4.67;3.43;;;-0.80;1.00;;;;;;5073904;28;20606;-84
2022/04/01 04:43:39;;;;;;;5.77;3.40;;;-0.80;1.00;;;;;;5073684;28;20180;-83
2022/04/01 04:46:08;;;;;;;6.40;3.77;;;-0.80;1.00;;;;;;5082190;28;20688;-84
2022/04/01 04:48:37;;;;;;;5.17;2.80;;;-0.70;1.00;;;;;;5076790;28;20744;-84
2022/04/01 04:51:06;;;;;;;6.97;3.67;;;-0.70;1.00;;;;;;5077561;28;20196;-84
2022/04/01 04:53:35;;;;;;;3.70;3.07;;;-0.60;1.00;;;;;;5077245;28;20200;-84
2022/04/01 04:56:03;;;;;;;5.90;3.57;;;-0.60;1.00;;;;;;5077013;28;20190;-82
2022/04/01 04:58:34;;;;;;;4.93;3.40;;;-0.50;1.00;;;;;;5073269;28;20196;-83
2022/04/01 05:01:04;;;;;;;7.07;3.53;;;-0.50;1.00;;;;;;5075264;28;20583;-85
2022/04/01 05:03:55;;;;;;;4.97;3.20;;;-0.40;1.00;;;;;;5076808;28;20196;-84
2022/04/01 05:06:28;;;;;;;4.83;3.33;;;-0.40;1.00;;;;;;5076175;28;20226;-89
2022/04/01 05:09:01;;;;;;;7.03;4.30;;;-0.30;1.00;;;;;;5077234;28;20595;-84
2022/04/01 05:11:42;;;;;;;8.03;4.00;;;-0.20;1.00;;;;;;5055899;28;20685;-84
2022/04/01 05:14:32;;;;;;;4.80;3.23;;;-0.20;1.00;;;;;;5061018;28;20192;-85
2022/04/01 05:17:04;;;;;;;5.83;3.30;;;-0.10;1.00;;;;;;5052446;28;20192;-85
2022/04/01 05:19:36;;;;;;;5.47;3.30;;;0.00;1.00;;;;;;5053019;28;20593;-84
2022/04/01 05:22:05;;;;;;;5.17;2.90;;;0.00;1.00;;;;;;5053124;28;20239;-85
2022/04/01 05:24:39;;;;;;;6.73;3.13;;;0.10;1.00;;;;;;5055603;28;20204;-84
2022/04/01 05:27:09;;;;;;;4.27;2.83;;;0.20;1.00;;;;;;5057071;28;20261;-83
2022/04/01 05:29:42;;;;;;;3.60;2.67;;;0.30;1.00;;;;;;5056681;28;20197;-84
2022/04/01 05:32:11;;;;;;;6.43;2.73;;;0.40;1.00;;;;;;5070041;28;20680;-83
2022/04/01 05:34:44;;;;;;;4.37;2.90;;;0.50;1.00;;;;;;5076354;28;20192;-84
2022/04/01 05:37:13;;;;;;;6.00;3.30;;;0.60;1.00;;;;;;5076376;28;20188;-84
2022/04/01 05:39:42;;;;;;;6.63;3.33;;;0.70;1.00;;;;;;5074639;28;20672;-84
2022/04/01 05:42:10;;;;;;;4.93;2.80;;;0.80;1.00;;;;;;5061313;28;20671;-84
2022/04/01 05:44:38;;;;;;;8.37;3.20;;;1.00;1.00;;;;;;5075923;28;20224;-84
2022/04/01 05:47:07;;;;;;;5.20;3.00;;;1.20;1.00;;;;;;5069987;28;20720;-84
2022/04/01 05:49:40;;;;;;;4.53;3.20;;;1.40;1.00;;;;;;5061112;28;20189;-84
2022/04/01 05:52:09;;;;;;;9.90;2.87;;;1.50;1.00;;;;;;5063219;28;20199;-84
2022/04/01 05:54:37;;;;;;;3.50;2.60;;;1.70;1.00;;;;;;5058840;28;20700;-83
2022/04/01 05:57:05;;;;;;;4.93;2.80;;;1.80;1.00;;;;;;5056809;28;20342;-83
2022/04/01 05:59:33;;;;;;;4.60;3.03;;;1.90;1.00;;;;;;5075489;28;20201;-83
2022/04/01 06:02:20;;;;;;;4.27;2.77;;;2.10;1.00;;;;;;5073047;28;20601;-83
2022/04/01 06:05:06;;;;;;;5.47;2.77;;;2.20;1.00;;;;;;5074714;28;20176;-83
2022/04/01 06:07:42;;;;;;;4.23;2.73;;;2.50;1.00;;;;;;5058410;28;20208;-82
2022/04/01 06:10:15;;;;;;;7.63;3.00;;;2.60;1.00;;;;;;5055030;28;20315;-82
2022/04/01 06:12:57;;;;;;;5.27;2.90;;;2.70;1.00;;;;;;5058605;28;20196;-84
2022/04/01 06:15:32;;;;;;;4.83;3.20;;;2.70;1.00;;;;;;5054834;28;20655;-84
2022/04/01 06:18:11;;;;;;;5.30;2.80;;;2.80;1.00;;;;;;5055804;28;20250;-84
2022/04/01 06:20:41;;;;;;;5.77;3.40;;;2.90;1.00;;;;;;5055572;28;20595;-84
2022/04/01 06:23:17;;;;;;;5.70;2.93;;;3.00;1.00;;;;;;5068634;28;20231;-82
2022/04/01 06:25:51;;;;;;;5.87;2.80;;;3.00;1.00;;;;;;5072730;28;20199;-82
2022/04/01 06:28:25;;;;;;;6.07;2.80;;;3.00;1.00;;;;;;5076361;28;20190;-83
2022/04/01 06:30:55;;;;;;;3.40;2.57;;;3.10;1.00;;;;;;5074543;28;20254;-84
2022/04/01 06:33:33;;;;;;;6.17;3.20;;;3.20;1.00;;;;;;5072254;28;20271;-83
2022/04/01 06:36:03;;;;;;;5.43;2.83;;;3.30;1.00;;;;;;5068594;28;20184;-83
2022/04/01 06:38:40;;;;;;;3.87;2.60;;;3.50;1.00;;;;;;5052337;28;20183;-83
2022/04/01 06:41:08;;;;;;;5.43;2.90;;;3.60;1.00;;;;;;5055722;28;20259;-83
2022/04/01 06:43:36;;;;;;;4.93;2.57;;;3.80;1.00;;;;;;5072229;28;20197;-83
2022/04/01 06:46:04;;;;;;;4.93;2.53;;;4.00;1.00;;;;;;5071796;28;20308;-83
2022/04/01 06:48:31;;;;;;;4.23;2.70;;;4.20;1.00;;;;;;5071815;28;20206;-83
2022/04/01 06:50:58;;;;;;;7.53;3.00;;;4.30;1.00;;;;;;5063556;28;20242;-83
2022/04/01 06:53:26;;;;;;;6.20;2.90;;;4.50;1.00;;;;;;5051517;28;20649;-83
2022/04/01 06:55:55;;;;;;;3.87;2.60;;;4.60;1.00;;;;;;5051799;28;20653;-83
2022/04/01 06:58:26;;;;;;;4.47;2.67;;;4.70;1.00;;;;;;5051481;28;20666;-83
2022/04/01 07:00:54;;;;;;;3.77;2.53;;;4.80;1.00;;;;;;5052072;28;20189;-83
2022/04/01 07:03:21;;;;;;;5.50;2.60;;;4.90;1.00;;;;;;5058240;28;20193;-83
2022/04/01 07:05:48;;;;;;;6.43;2.70;;;5.00;1.00;;;;;;5071627;28;20220;-83
2022/04/01 07:08:17;;;;;;;4.60;2.33;;;5.10;1.00;;;;;;5072003;28;20198;-83
2022/04/01 07:10:46;;;;;;;7.13;2.60;;;5.10;1.00;;;;;;5071752;28;20285;-85
2022/04/01 07:13:14;;;;;;;5.67;2.90;;;5.20;1.00;;;;;;5071752;28;20287;-83
2022/04/01 07:15:42;;;;;;;5.67;2.70;;;5.40;1.00;;;;;;5057135;28;20201;-83
2022/04/01 07:18:09;;;;;;;42.93;4.77;;;5.60;1.00;;;;;;5051919;28;20282;-83
2022/04/01 07:20:36;;;;;;;7.77;2.80;;;5.70;1.00;;;;;;5051468;28;20703;-83
2022/04/01 07:23:03;;;;;;;6.33;2.63;;;5.80;1.00;;;;;;5051768;28;20192;-83
2022/04/01 07:25:30;;;;;;;10.67;3.60;;;5.90;1.00;;;;;;5059117;28;20209;-83
2022/04/01 07:27:57;;;;;;;22.87;3.20;;;6.10;1.00;;;;;;5074173;28;20192;-83
2022/04/01 07:30:26;;;;;;;5.60;2.83;;;6.20;1.00;;;;;;5075053;28;20192;-83
2022/04/01 07:32:56;;;;;;;4.13;3.03;;;6.20;1.00;;;;;;5075332;28;20434;-83
2022/04/01 07:35:23;;;;;;;4.47;2.70;;;6.20;1.00;;;;;;5074862;28;20193;-83
2022/04/01 07:37:50;;;;;;;5.90;2.80;;;6.10;1.00;;;;;;5074941;28;20220;-83
2022/04/01 07:40:18;;;;;;;7.07;2.70;;;6.10;1.00;;;;;;5074470;28;20563;-83
2022/04/01 07:42:46;;;;;;;5.50;2.50;;;6.00;1.00;;;;;;5075144;28;20188;-83
2022/04/01 07:45:13;;;;;;;5.73;3.00;;;6.10;1.00;;;;;;5065340;28;20650;-83
2022/04/01 07:47:44;;;;;;;7.20;2.70;;;6.00;1.00;;;;;;5055096;28;20203;-83
2022/04/01 07:50:13;;;;;;;5.20;2.53;;;6.10;1.00;;;;;;5053609;28;20195;-83
2022/04/01 07:52:43;;;;;;;4.10;2.53;;;6.20;1.00;;;;;;5054084;28;20228;-83
2022/04/01 07:55:12;;;;;;;4.60;2.70;;;6.20;1.00;;;;;;5055113;28;20196;-83
2022/04/01 07:57:39;;;;;;;5.43;2.60;;;6.10;1.00;;;;;;5054792;28;20200;-83
2022/04/01 08:00:10;;;;;;;6.27;2.90;;;6.30;1.00;;;;;;5054265;28;20650;-83
2022/04/01 08:02:39;;;;;;;4.43;2.27;;;6.40;1.00;;;;;;5054704;28;20181;-83
2022/04/01 08:05:08;;;;;;;6.83;2.53;;;6.50;1.00;;;;;;5069701;28;20192;-82
2022/04/01 08:07:35;;;;;;;4.57;2.50;;;6.60;1.00;;;;;;5057626;28;20213;-82
2022/04/01 08:10:04;;;;;;;4.70;2.50;;;6.70;1.00;;;;;;5059679;28;20230;-83
2022/04/01 08:12:34;;;;;;;39.67;4.00;;;6.90;1.00;;;;;;5054746;28;20189;-83
2022/04/01 08:15:02;;;;;;;8.37;2.80;;;7.10;1.00;;;;;;5054439;28;20285;-83
2022/04/01 08:17:29;;;;;;;5.60;2.37;;;7.30;1.00;;;;;;5054803;28;20620;-83
2022/04/01 08:19:56;;;;;;;6.03;2.00;;;7.40;1.00;;;;;;5069702;28;20191;-83
2022/04/01 08:22:24;;;;;;;3.03;1.80;;;7.50;1.00;;;;;;5053981;28;20215;-83
2022/04/01 08:24:51;;;;;;;3.43;2.40;;;7.40;1.00;;;;;;5054327;28;20251;-83
2022/04/01 08:27:18;;;;;;;4.03;2.47;;;7.60;1.00;;;;;;5054210;28;20280;-83
2022/04/01 08:29:45;;;;;;;6.43;2.63;;;7.60;1.00;;;;;;5053810;28;20196;-83
2022/04/01 08:32:12;;;;;;;5.17;2.30;;;7.70;1.00;;;;;;5054081;28;20200;-83
2022/04/01 08:34:39;;;;;;;6.57;2.23;;;7.70;1.00;;;;;;5053755;28;20247;-83
2022/04/01 08:37:07;;;;;;;8.20;6.77;;;7.50;1.00;;;;;;5054224;28;20200;-83
2022/04/01 08:39:36;;;;;;;7.57;2.50;;;7.60;1.00;;;;;;5056253;28;20555;-83
2022/04/01 08:42:05;;;;;;;5.07;2.30;;;7.60;1.00;;;;;;5068057;28;20648;-83
2022/04/01 08:44:32;;;;;;;8.33;2.23;;;7.80;1.00;;;;;;5073848;28;20198;-83
2022/04/01 08:46:59;;;;;;;7.33;2.40;;;7.90;1.00;;;;;;5073700;28;20223;-83
2022/04/01 08:49:27;;;;;;;4.33;1.80;;;7.80;1.00;;;;;;5073418;28;20188;-83
2022/04/01 08:51:54;;;;;;;7.80;2.57;;;7.80;1.00;;;;;;5073795;28;20287;-83
2022/04/01 08:54:21;;;;;;;5.23;1.80;;;7.80;1.00;;;;;;5058346;28;20193;-83
2022/04/01 08:56:49;;;;;;;13.10;2.80;;;7.80;1.00;;;;;;5053954;28;20204;-83
2022/04/01 08:59:16;;;;;;;6.53;1.90;;;7.90;1.00;;;;;;5053909;28;20599;-83
2022/04/01 09:01:44;;;;;;;4.30;2.20;;;8.10;1.00;;;;;;5052807;28;20208;-82
2022/04/01 09:04:22;;;;;;;8.70;2.27;;;8.20;1.00;;;;;;5052600;28;20201;-82
2022/04/01 09:06:50;;;;;;;6.97;2.33;;;8.30;1.00;;;;;;5052668;28;20201;-82
2022/04/01 09:09:29;;;;;;;8.40;3.03;;;8.40;1.00;;;;;;5052704;28;20221;-82
2022/04/01 09:12:09;;;;;;;7.90;2.40;;;8.60;1.00;;;;;;5072232;28;20692;-83
2022/04/01 09:14:37;;;;;;;3.93;2.00;;;8.60;1.00;;;;;;5070255;28;20229;-82
2022/04/01 09:17:04;;;;;;;19.43;3.20;;;8.50;1.00;;;;;;5052270;28;20730;-83
2022/04/01 09:19:32;;;;;;;7.23;2.07;;;8.60;1.00;;;;;;5052495;28;20596;-82
2022/04/01 09:22:16;;;;;;;7.20;2.13;;;8.60;1.00;;;;;;5058107;28;20188;-82
2022/04/01 09:24:58;;;;;;;4.80;2.40;;;8.60;1.00;;;;;;5072086;28;20543;-82
2022/04/01 09:27:51;;;;;;;6.87;2.47;;;8.60;1.00;;;;;;5071975;28;20214;-82
2022/04/01 09:30:19;;;;;;;5.33;2.17;;;8.70;1.00;;;;;;5061661;28;20210;-82
2022/04/01 09:32:50;;;;;;;11.43;2.40;;;8.60;1.00;;;;;;5071889;28;20245;-82
2022/04/01 09:35:18;;;;;;;4.50;1.70;;;8.40;1.00;;;;;;5072285;28;20190;-82
2022/04/01 09:37:46;;;;;;;5.50;1.77;;;8.20;1.00;;;;;;5072065;28;20255;-82
2022/04/01 09:40:17;;;;;;;11.33;2.17;;;8.20;1.00;;;;;;5072241;28;20196;-82
2022/04/01 09:42:48;;;;;;;4.63;2.10;;;8.40;1.00;;;;;;5069113;28;20191;-82
2022/04/01 09:45:18;;;;;;;7.00;2.37;;;8.50;1.00;;;;;;5054228;28;20205;-82
2022/04/01 09:47:45;;;;;;;5.07;1.80;;;8.50;1.00;;;;;;5051564;28;20231;-82
2022/04/01 09:50:18;;;;;;;5.00;2.00;;;8.40;1.00;;;;;;5054713;28;20609;-82
2022/04/01 09:52:46;;;;;;;10.17;2.37;;;8.40;1.00;;;;;;5051817;28;20196;-82
2022/04/01 09:55:13;;;;;;;29.27;2.93;;;8.40;1.00;;;;;;5052562;28;20659;-82
2022/04/01 09:57:41;;;;;;;9.33;2.50;;;8.30;1.00;;;;;;5054669;28;20272;-82
2022/04/01 10:00:09;;;;;;;5.27;2.40;;;8.20;1.00;;;;;;5051204;28;20602;-82
2022/04/01 10:02:41;;;;;;;14.63;3.00;;;8.00;1.00;;;;;;5051112;28;20204;-82
2022/04/01 10:05:09;;;;;;;5.83;1.87;;;7.90;1.00;;;;;;5051595;28;20189;-82
2022/04/01 10:07:37;;;;;;;6.97;2.23;;;7.80;1.00;;;;;;5051178;28;20690;-82
2022/04/01 10:10:07;;;;;;;3.73;1.80;;;7.70;1.00;;;;;;5011194;28;1170963;-82
2022/04/01 10:12:41;;;;;;;12.40;3.17;;;7.70;1.00;;;;;;5052591;28;20197;-82
2022/04/01 10:15:10;;;;;;;8.13;2.40;;;7.80;1.00;;;;;;5052169;28;20191;-82
2022/04/01 10:17:40;;;;;;;9.27;2.30;;;7.90;1.00;;;;;;5052050;28;20198;-82
2022/04/01 10:20:12;;;;;;;4.73;1.87;;;7.90;1.00;;;;;;5063702;28;20221;-82
2022/04/01 10:22:42;;;;;;;3.03;1.80;;;7.90;1.00;;;;;;5071660;28;20651;-82
2022/04/01 10:25:16;;;;;;;6.37;1.83;;;8.00;1.00;;;;;;5072161;28;20197;-82
2022/04/01 10:27:48;;;;;;;9.40;2.13;;;8.00;1.00;;;;;;5072204;28;20209;-82
2022/04/01 10:30:16;;;;;;;8.03;2.00;;;8.00;1.00;;;;;;5072072;28;20182;-82
2022/04/01 10:32:45;;;;;;;10.93;1.50;;;8.00;1.00;;;;;;5072298;28;20265;-82
2022/04/01 10:35:25;;;;;;;6.10;1.60;;;8.10;1.00;;;;;;5072259;28;20205;-82
2022/04/01 10:37:56;;;;;;;4.03;1.60;;;8.00;1.00;;;;;;5072012;28;20586;-82
2022/04/01 10:40:25;;;;;;;13.13;2.47;;;8.00;1.00;;;;;;5072227;28;20191;-82
2022/04/01 10:42:52;;;;;;;8.53;1.93;;;8.00;1.00;;;;;;5071828;28;20710;-82
2022/04/01 10:45:26;;;;;;;12.80;1.90;;;8.20;1.00;;;;;;5061913;28;20596;-82
2022/04/01 10:53:37;;;;;;;8.73;2.10;;;8.20;1.00;;;;;;5051699;28;20566;-82
2022/04/01 10:56:31;;;;;;;7.97;2.30;;;8.30;1.00;;;;;;5051978;28;20199;-82
2022/04/01 10:59:06;;;;;;;19.37;2.10;;;8.30;1.00;;;;;;5053191;28;20649;-82
2022/04/01 11:01:35;;;;;;;5.07;2.20;;;8.30;1.00;;;;;;5052457;28;20612;-82
2022/04/01 11:04:03;;;;;;;11.50;2.13;;;8.20;1.00;;;;;;5061001;28;20277;-82
2022/04/01 11:06:31;;;;;;;15.67;3.47;;;8.20;1.00;;;;;;5075648;28;20216;-82
2022/04/01 11:08:58;;;;;;;18.17;2.57;;;8.20;1.00;;;;;;5075380;28;20553;-82
2022/04/01 11:11:26;;;;;;;13.13;2.50;;;8.30;1.00;;;;;;5075262;28;20195;-82
2022/04/01 11:14:04;;;;;;;10.27;2.70;;;8.20;1.00;;;;;;5075561;28;20200;-82
2022/04/01 11:16:46;;;;;;;9.80;2.57;;;8.20;1.00;;;;;;5075384;28;20193;-82
2022/04/01 11:19:18;;;;;;;13.83;2.20;;;8.20;1.00;;;;;;5075331;28;20184;-82
2022/04/01 11:21:48;;;;;;;6.13;1.80;;;8.20;1.00;;;;;;5075056;28;20194;-82
2022/04/01 11:24:33;;;;;;;8.53;2.07;;;8.10;1.00;;;;;;5074943;28;20198;-82
2022/04/01 11:27:07;;;;;;;14.43;3.00;;;8.10;1.00;;;;;;5075217;28;20208;-82
2022/04/01 11:29:35;;;;;;;17.23;2.50;;;8.30;1.00;;;;;;5075246;28;20272;-82
2022/04/01 11:32:05;;;;;;;14.33;2.67;;;8.40;1.00;;;;;;5075277;28;20256;-82
2022/04/01 11:34:32;;;;;;;17.00;2.53;;;8.40;1.00;;;;;;5075061;28;20560;-83
2022/04/01 11:37:02;;;;;;;7.73;2.47;;;8.50;1.00;;;;;;5074750;28;20602;-82
2022/04/01 11:39:30;;;;;;;12.77;3.10;;;8.50;1.00;;;;;;5074769;28;20735;-82
2022/04/01 11:41:57;;;;;;;12.93;2.23;;;8.50;1.00;;;;;;5074745;28;20192;-82
2022/04/01 11:44:25;;;;;;;9.07;2.10;;;8.60;1.00;;;;;;5074628;28;20199;-82
2022/04/01 11:46:53;;;;;;;6.80;2.67;;;8.50;1.00;;;;;;5074911;28;20640;-82
2022/04/01 11:49:25;;;;;;;17.97;2.97;;;8.40;1.00;;;;;;5072872;28;20190;-83
2022/04/01 11:51:52;;;;;;;14.57;2.43;;;8.50;1.00;;;;;;5075054;28;20189;-83
2022/04/01 11:54:21;;;;;;;16.17;2.43;;;8.60;1.00;;;;;;5074587;28;20249;-83
2022/04/01 11:56:52;;;;;;;9.13;2.50;;;8.70;1.00;;;;;;5074821;28;20289;-83
2022/04/01 11:59:19;;;;;;;12.73;2.37;;;8.70;1.00;;;;;;5074236;28;20627;-83
2022/04/01 12:01:58;;;;;;;12.10;2.30;;;8.70;1.00;;;;;;5074414;28;20286;-83
2022/04/01 12:04:35;;;;;;;11.40;2.43;;;8.80;1.00;;;;;;5074380;28;20698;-82
2022/04/01 12:09:58;;;;;;;10.00;1.90;;;8.70;1.00;;;;;;5074431;28;20244;-82
2022/04/01 12:12:25;;;;;;;7.73;2.17;;;8.80;1.00;;;;;;5074553;28;20253;-82
2022/04/01 12:14:56;;;;;;;8.33;2.17;;;8.80;1.00;;;;;;5073226;28;20219;-82
2022/04/01 12:17:23;;;;;;;6.60;2.00;;;8.70;1.00;;;;;;5054455;28;20559;-82
2022/04/01 12:19:51;;;;;;;12.30;2.57;;;8.70;1.00;;;;;;5065561;28;20187;-82
2022/04/01 12:22:18;;;;;;;12.87;2.50;;;8.80;1.00;;;;;;5073977;28;20291;-82
2022/04/01 12:24:45;;;;;;;14.80;2.50;;;8.80;1.00;;;;;;5073892;28;20655;-82
2022/04/01 12:27:13;;;;;;;9.43;2.03;;;8.90;1.00;;;;;;5074100;28;20217;-82
2022/04/01 12:29:45;;;;;;;11.67;2.40;;;8.90;1.00;;;;;;5073273;28;20191;-82
2022/04/01 12:32:18;;;;;;;6.47;1.93;;;8.90;1.00;;;;;;5074058;28;20269;-82
2022/04/01 12:34:47;;;;;;;6.73;2.30;;;8.80;1.00;;;;;;5073735;28;20193;-82
2022/04/01 12:37:16;;;;;;;15.23;2.43;;;8.80;1.00;;;;;;5053834;28;20204;-82
2022/04/01 12:39:45;;;;;;;17.80;2.40;;;8.90;1.00;;;;;;5053059;28;20242;-82
2022/04/01 12:42:14;;;;;;;11.50;2.00;;;9.00;1.00;;;;;;5053161;28;20181;-82
2022/04/01 12:44:44;;;;;;;15.73;2.43;;;9.00;1.00;;;;;;5052990;28;20721;-82
2022/04/01 12:47:13;;;;;;;10.93;2.20;;;9.00;1.00;;;;;;5053546;28;20303;-82
2022/04/01 12:49:43;;;;;;;10.60;2.20;;;9.00;1.00;;;;;;5064517;28;20195;-82
2022/04/01 12:52:15;;;;;;;10.93;2.37;;;9.00;1.00;;;;;;5073966;28;20192;-82
2022/04/01 12:54:44;;;;;;;15.07;2.83;;;8.90;1.00;;;;;;5073873;28;20523;-82
2022/04/01 12:57:13;;;;;;;7.77;2.00;;;8.90;1.00;;;;;;5073202;28;20656;-82
2022/04/01 12:59:42;;;;;;;7.80;2.20;;;9.00;1.00;;;;;;5073598;28;20226;-82
2022/04/01 13:02:12;;;;;;;5.13;1.90;;;9.00;1.00;;;;;;5073837;28;20200;-82
2022/04/01 13:04:42;;;;;;;4.97;2.10;;;8.90;1.00;;;;;;5073934;28;20198;-82
2022/04/01 13:07:13;;;;;;;8.07;2.17;;;8.90;1.00;;;;;;5072818;28;20694;-82
2022/04/01 13:09:49;;;;;;;7.00;2.00;;;8.90;1.00;;;;;;5065641;28;20220;-82
2022/04/01 13:12:17;;;;;;;11.03;2.40;;;8.80;1.00;;;;;;5053115;28;20279;-82
2022/04/01 13:14:45;;;;;;;7.10;2.20;;;8.80;1.00;;;;;;5052979;28;20652;-82
2022/04/01 13:17:14;;;;;;;13.03;2.43;;;8.70;1.00;;;;;;5053019;28;20200;-82
2022/04/01 13:19:44;;;;;;;26.57;3.20;;;8.70;1.00;;;;;;5053398;28;20196;-82
2022/04/01 13:22:11;;;;;;;11.50;2.27;;;8.80;1.00;;;;;;5053527;28;20194;-81
2022/04/01 13:24:40;;;;;;;6.90;2.30;;;8.80;1.00;;;;;;5052602;28;20199;-82
2022/04/01 13:27:10;;;;;;;17.07;2.73;;;8.80;1.00;;;;;;5071311;28;20201;-82
2022/04/01 13:29:38;;;;;;;15.07;2.87;;;8.80;1.00;;;;;;5073356;28;20211;-82